createdAt,value
2018-12-10T00:00:33.967Z,1.83
2018-12-10T00:03:08.209Z,1.57
2018-12-10T00:05:36.932Z,1.30
2018-12-10T00:08:11.932Z,1.27
2018-12-10T00:10:41.737Z,1.63
2018-12-10T00:13:10.652Z,1.83
2018-12-10T00:15:39.115Z,1.40
2018-12-10T00:18:08.536Z,1.73
2018-12-10T00:20:37.235Z,1.80
2018-12-10T00:23:12.078Z,1.60
2018-12-10T00:25:40.579Z,1.20
2018-12-10T00:28:09.196Z,1.80
2018-12-10T00:30:43.912Z,1.57
2018-12-10T00:33:12.608Z,1.27
2018-12-10T00:35:41.060Z,1.73
2018-12-10T00:38:09.680Z,1.60
2018-12-10T00:40:38.503Z,1.30
2018-12-10T00:43:07.180Z,1.83
2018-12-10T00:45:35.741Z,1.70
2018-12-10T00:48:04.433Z,1.60
2018-12-10T00:50:33.131Z,1.30
2018-12-10T00:53:07.937Z,1.27
2018-12-10T00:55:36.629Z,1.43
2018-12-10T00:58:05.522Z,1.30
2018-12-10T01:00:34.255Z,1.47
2018-12-10T01:03:02.967Z,1.23
2018-12-10T01:05:31.648Z,1.33
2018-12-10T01:08:00.416Z,0.87
2018-12-10T01:10:29.116Z,1.93
2018-12-10T01:12:57.575Z,1.10
2018-12-10T01:15:26.769Z,1.03
2018-12-10T01:17:55.339Z,1.50
2018-12-10T01:20:24.007Z,1.80
2018-12-10T01:22:52.747Z,1.40
2018-12-10T01:25:21.495Z,1.77
2018-12-10T01:27:50.165Z,1.57
2018-12-10T01:30:25.080Z,1.10
2018-12-10T01:32:54.014Z,0.67
2018-12-10T01:35:22.733Z,1.17
2018-12-10T01:37:51.186Z,1.10
2018-12-10T01:40:19.587Z,1.85
2018-12-10T01:42:48.992Z,1.73
2018-12-10T01:45:17.458Z,1.00
2018-12-10T01:47:51.156Z,1.20
2018-12-10T01:50:19.838Z,1.13
2018-12-10T01:52:54.723Z,0.73
2018-12-10T01:55:23.536Z,0.70
2018-12-10T01:57:52.279Z,1.00
2018-12-10T02:00:21.039Z,1.30
2018-12-10T02:02:49.519Z,1.47
2018-12-10T02:05:17.975Z,1.00
2018-12-10T02:07:46.633Z,1.63
2018-12-10T02:10:15.295Z,0.97
2018-12-10T02:12:43.765Z,1.10
2018-12-10T02:15:12.425Z,1.43
2018-12-10T02:17:41.269Z,1.37
2018-12-10T02:20:10.905Z,0.83
2018-12-10T02:22:39.535Z,0.87
2018-12-10T02:25:08.299Z,1.37
2018-12-10T02:27:37.924Z,1.13
2018-12-10T02:30:06.768Z,1.27
2018-12-10T02:32:35.493Z,1.40
2018-12-10T02:35:04.539Z,1.87
2018-12-10T02:37:33.082Z,1.27
2018-12-10T02:40:01.459Z,1.10
2018-12-10T02:42:29.828Z,1.20
2018-12-10T02:44:58.491Z,2.00
2018-12-10T02:47:31.974Z,1.20
2018-12-10T02:50:01.279Z,1.20
2018-12-10T02:52:29.897Z,1.40
2018-12-10T02:54:58.581Z,1.27
2018-12-10T02:57:27.344Z,0.87
2018-12-10T02:59:55.932Z,1.13
2018-12-10T03:02:24.575Z,1.55
2018-12-10T03:04:53.063Z,0.93
2018-12-10T03:07:28.024Z,0.82
2018-12-10T03:10:02.815Z,1.55
2018-12-10T03:12:31.243Z,0.80
2018-12-10T03:14:59.664Z,0.60
2018-12-10T03:20:02.164Z,0.90
2018-12-10T03:22:30.872Z,1.05
2018-12-10T03:25:06.171Z,1.12
2018-12-10T03:27:34.648Z,1.77
2018-12-10T03:30:09.549Z,1.52
2018-12-10T03:32:38.075Z,1.45
2018-12-10T03:35:12.948Z,1.20
2018-12-10T03:37:48.000Z,1.15
2018-12-10T03:40:16.786Z,0.70
2018-12-10T03:42:51.532Z,0.98
2018-12-10T03:45:20.136Z,1.05
2018-12-10T03:47:48.900Z,1.80
2018-12-10T03:50:17.659Z,1.33
2018-12-10T03:52:46.567Z,1.02
2018-12-10T03:55:15.802Z,1.37
2018-12-10T03:57:50.636Z,0.80
2018-12-10T04:00:19.287Z,0.90
2018-12-10T04:02:54.048Z,1.17
2018-12-10T04:05:29.007Z,0.70
2018-12-10T04:08:03.828Z,0.50
2018-12-10T04:10:32.416Z,1.37
2018-12-10T04:13:01.071Z,0.93
2018-12-10T04:15:30.631Z,1.15
2018-12-10T04:18:05.250Z,1.45
2018-12-10T04:20:40.179Z,1.02
2018-12-10T04:23:08.884Z,1.42
2018-12-10T04:25:37.582Z,1.10
2018-12-10T04:28:06.318Z,0.88
2018-12-10T04:30:35.056Z,0.60
2018-12-10T04:33:03.752Z,1.27
2018-12-10T04:35:32.707Z,1.98
2018-12-10T04:38:01.166Z,1.32
2018-12-10T04:40:30.581Z,1.17
2018-12-10T04:42:59.269Z,0.72
2018-12-10T04:45:34.233Z,1.30
2018-12-10T04:48:06.947Z,1.30
2018-12-10T04:50:35.707Z,1.00
2018-12-10T04:53:04.469Z,1.50
2018-12-10T04:55:39.553Z,1.37
2018-12-10T04:58:08.256Z,1.70
2018-12-10T05:00:37.009Z,1.07
2018-12-10T05:03:11.939Z,0.98
2018-12-10T05:05:41.166Z,1.57
2018-12-10T05:08:09.835Z,1.22
2018-12-10T05:10:38.527Z,1.05
2018-12-10T05:13:07.241Z,1.32
2018-12-10T05:15:35.791Z,1.65
2018-12-10T05:18:04.473Z,0.98
2018-12-10T05:20:33.212Z,1.25
2018-12-10T05:23:02.083Z,1.17
2018-12-10T05:25:31.010Z,1.20
2018-12-10T05:27:59.748Z,1.27
2018-12-10T05:30:28.511Z,1.47
2018-12-10T05:32:56.950Z,1.12
2018-12-10T05:35:31.484Z,1.42
2018-12-10T05:38:00.100Z,1.45
2018-12-10T05:40:28.692Z,2.10
2018-12-10T05:43:03.426Z,1.32
2018-12-10T05:45:38.327Z,1.30
2018-12-10T05:48:12.911Z,1.45
2018-12-10T05:50:41.635Z,0.90
2018-12-10T05:53:10.411Z,0.98
2018-12-10T05:55:39.097Z,1.52
2018-12-10T05:58:13.798Z,1.52
2018-12-10T06:00:42.544Z,1.37
2018-12-10T06:03:11.177Z,1.57
2018-12-10T06:05:39.920Z,1.52
2018-12-10T06:08:14.828Z,1.60
2018-12-10T06:10:43.524Z,1.55
2018-12-10T06:13:12.236Z,2.08
2018-12-10T06:15:40.947Z,2.25
2018-12-10T06:18:15.688Z,1.57
2018-12-10T06:20:44.327Z,1.72
2018-12-10T06:23:12.905Z,1.47
2018-12-10T06:25:41.480Z,1.77
2018-12-10T06:28:16.339Z,1.50
2018-12-10T06:30:45.038Z,2.00
2018-12-10T06:33:14.564Z,1.90
2018-12-10T06:35:44.118Z,2.30
2018-12-10T06:38:12.908Z,1.80
2018-12-10T06:40:41.387Z,2.00
2018-12-10T06:43:10.288Z,1.90
2018-12-10T06:45:39.088Z,2.22
2018-12-10T06:48:13.772Z,2.90
2018-12-10T06:50:48.419Z,2.47
2018-12-10T06:53:17.107Z,2.65
2018-12-10T06:55:45.893Z,1.87
2018-12-10T06:58:14.587Z,2.10
2018-12-10T07:00:43.280Z,2.37
2018-12-10T07:03:18.097Z,2.33
2018-12-10T07:05:46.897Z,2.60
2018-12-10T07:08:16.210Z,2.50
2018-12-10T07:10:44.939Z,3.23
2018-12-10T07:13:18.675Z,2.77
2018-12-10T07:15:47.368Z,2.30
2018-12-10T07:18:16.067Z,2.07
2018-12-10T07:20:44.780Z,2.83
2018-12-10T07:23:19.602Z,3.20
2018-12-10T07:25:54.503Z,3.20
2018-12-10T07:28:23.200Z,3.17
2018-12-10T07:30:52.106Z,2.67
2018-12-10T07:33:21.583Z,3.60
2018-12-10T07:35:50.359Z,2.17
2018-12-10T07:38:19.127Z,2.60
2018-12-10T07:40:54.099Z,2.75
2018-12-10T07:43:28.981Z,3.08
2018-12-10T07:46:04.080Z,3.10
2018-12-10T07:48:32.803Z,2.83
2018-12-10T07:51:01.627Z,3.23
2018-12-10T07:53:30.368Z,2.70
2018-12-10T07:55:59.160Z,2.60
2018-12-10T07:58:34.133Z,2.55
2018-12-10T08:01:02.839Z,3.53
2018-12-10T08:03:37.627Z,2.27
2018-12-10T08:06:06.399Z,1.77
2018-12-10T08:08:37.087Z,2.65
2018-12-10T08:11:12.064Z,2.00
2018-12-10T08:13:40.776Z,1.57
2018-12-10T08:16:09.492Z,1.90
2018-12-10T08:18:38.144Z,1.60
2018-12-10T08:21:06.986Z,1.97
2018-12-10T08:23:35.740Z,1.57
2018-12-10T08:26:04.441Z,1.33
2018-12-10T08:28:39.855Z,1.30
2018-12-10T08:31:08.616Z,1.63
2018-12-10T08:33:43.618Z,1.20
2018-12-10T08:36:12.312Z,1.85
2018-12-10T08:38:40.996Z,1.47
2018-12-10T08:41:09.691Z,1.67
2018-12-10T08:43:38.385Z,1.45
2018-12-10T08:46:07.071Z,1.60
2018-12-10T08:48:35.827Z,1.30
2018-12-10T08:51:10.777Z,1.62
2018-12-10T08:53:40.263Z,2.05
2018-12-10T08:56:15.192Z,1.45
2018-12-10T08:58:43.936Z,1.90
2018-12-10T09:01:16.642Z,1.77
2018-12-10T09:03:45.335Z,1.97
2018-12-10T09:06:14.037Z,1.60
2018-12-10T09:08:48.583Z,1.00
2018-12-10T09:11:23.553Z,1.57
2018-12-10T09:13:56.006Z,1.50
2018-12-10T09:16:24.760Z,1.73
2018-12-10T09:18:54.061Z,1.10
2018-12-10T09:21:22.732Z,1.50
2018-12-10T09:23:51.479Z,1.60
2018-12-10T09:26:26.563Z,1.70
2018-12-10T09:28:55.291Z,1.50
2018-12-10T09:31:23.841Z,1.40
2018-12-10T09:33:53.224Z,1.30
2018-12-10T09:36:25.088Z,1.73
2018-12-10T09:38:53.787Z,1.50
2018-12-10T09:41:22.478Z,1.90
2018-12-10T09:43:51.293Z,2.20
2018-12-10T09:46:27.649Z,1.90
2018-12-10T09:49:02.785Z,1.90
2018-12-10T09:51:31.554Z,2.90
2018-12-10T09:54:00.208Z,2.60
2018-12-10T09:56:29.061Z,3.20
2018-12-10T09:58:57.732Z,2.63
2018-12-10T10:01:26.487Z,2.90
2018-12-10T10:03:55.247Z,3.17
2018-12-10T10:06:24.100Z,3.90
2018-12-10T10:08:52.841Z,3.73
2018-12-10T10:11:21.339Z,3.27
2018-12-10T10:13:56.336Z,3.60
2018-12-10T10:16:25.127Z,3.23
2018-12-10T10:18:59.872Z,4.17
2018-12-10T10:21:28.602Z,3.97
2018-12-10T10:23:57.288Z,3.20
2018-12-10T10:26:26.166Z,3.67
2018-12-10T10:28:54.739Z,3.40
2018-12-10T10:31:23.346Z,3.63
2018-12-10T10:33:58.303Z,4.30
2018-12-10T10:36:27.155Z,2.80
2018-12-10T10:38:55.824Z,2.80
2018-12-10T10:41:31.421Z,3.10
2018-12-10T10:44:02.008Z,3.30
2018-12-10T10:46:31.085Z,3.30
2018-12-10T10:48:59.775Z,2.63
2018-12-10T10:51:28.686Z,2.60
2018-12-10T10:53:57.468Z,1.73
2018-12-10T10:56:26.271Z,2.00
2018-12-10T10:58:55.066Z,1.20
2018-12-10T11:01:30.095Z,1.70
2018-12-10T11:04:05.035Z,2.30
2018-12-10T11:06:39.781Z,1.93
2018-12-10T11:09:15.186Z,1.30
2018-12-10T11:11:45.413Z,1.53
2018-12-10T11:14:14.203Z,1.70
2018-12-10T11:16:42.903Z,1.47
2018-12-10T11:19:11.575Z,1.40
2018-12-10T11:21:40.372Z,1.47
2018-12-10T11:24:15.171Z,1.80
2018-12-10T11:26:43.943Z,1.60
2018-12-10T11:29:12.676Z,2.03
2018-12-10T11:31:41.576Z,2.03
2018-12-10T11:34:10.267Z,1.73
2018-12-10T11:36:39.149Z,2.00
2018-12-10T11:39:07.920Z,1.90
2018-12-10T11:41:42.931Z,1.73
2018-12-10T11:44:11.654Z,1.70
2018-12-10T11:46:40.362Z,2.30
2018-12-10T11:49:12.075Z,2.57
2018-12-10T11:51:40.815Z,2.80
2018-12-10T11:54:15.717Z,2.20
2018-12-10T11:56:44.219Z,2.60
2018-12-10T12:01:54.271Z,2.47
2018-12-10T12:04:23.168Z,2.60
2018-12-10T12:06:57.992Z,2.37
2018-12-10T12:09:28.395Z,2.57
2018-12-10T12:12:03.157Z,3.43
2018-12-10T12:14:38.302Z,2.70
2018-12-10T12:17:07.072Z,3.13
2018-12-10T12:19:35.864Z,3.43
2018-12-10T12:22:10.826Z,2.80
2018-12-10T12:24:39.682Z,4.62
2018-12-10T12:27:08.423Z,5.00
2018-12-10T12:29:43.192Z,4.30
2018-12-10T12:32:11.788Z,3.80
2018-12-10T12:34:46.908Z,3.73
2018-12-10T12:37:21.670Z,3.50
2018-12-10T12:39:56.720Z,3.43
2018-12-10T12:42:31.740Z,3.97
2018-12-10T12:45:00.468Z,3.37
2018-12-10T12:47:29.263Z,3.33
2018-12-10T12:50:04.138Z,3.97
2018-12-10T12:52:32.852Z,3.00
2018-12-10T12:55:01.595Z,2.57
2018-12-10T12:57:36.597Z,2.13
2018-12-10T13:00:05.629Z,2.10
2018-12-10T13:02:40.736Z,1.87
2018-12-10T13:05:09.595Z,2.37
2018-12-10T13:07:44.709Z,1.87
2018-12-10T13:10:19.653Z,3.03
2018-12-10T13:12:48.435Z,3.03
2018-12-10T13:15:23.271Z,2.47
2018-12-10T13:17:51.831Z,3.53
2018-12-10T13:20:26.804Z,2.97
2018-12-10T13:22:55.479Z,3.07
2018-12-10T13:25:24.156Z,3.63
2018-12-10T13:27:52.859Z,3.60
2018-12-10T13:30:27.550Z,4.50
2018-12-10T13:32:55.931Z,2.73
2018-12-10T13:35:24.563Z,3.40
2018-12-10T13:37:53.024Z,3.50
2018-12-10T13:40:28.003Z,3.17
2018-12-10T13:42:56.444Z,3.13
2018-12-10T13:45:25.076Z,3.40
2018-12-10T13:47:54.371Z,4.33
2018-12-10T13:50:22.961Z,3.47
2018-12-10T13:52:57.875Z,3.33
2018-12-10T13:55:28.907Z,3.10
2018-12-10T13:58:02.980Z,3.93
2018-12-10T14:00:31.750Z,3.17
2018-12-10T14:03:07.000Z,3.30
2018-12-10T14:05:35.679Z,3.47
2018-12-10T14:08:10.815Z,3.87
2018-12-10T14:10:39.403Z,3.90
2018-12-10T14:13:14.379Z,3.33
2018-12-10T14:15:43.639Z,2.95
2018-12-10T14:18:18.466Z,3.08
2018-12-10T14:20:47.155Z,2.10
2018-12-10T14:23:16.074Z,2.70
2018-12-10T14:25:44.813Z,2.50
2018-12-10T14:28:19.646Z,2.10
2018-12-10T14:30:54.656Z,2.60
2018-12-10T14:33:25.280Z,2.00
2018-12-10T14:35:54.758Z,2.80
2018-12-10T14:38:23.296Z,2.00
2018-12-10T14:40:58.032Z,2.60
2018-12-10T14:43:26.731Z,2.30
2018-12-10T14:45:56.303Z,2.17
2018-12-10T14:48:25.919Z,1.60
2018-12-10T14:50:54.727Z,2.75
2018-12-10T14:53:24.307Z,2.10
2018-12-10T14:55:53.057Z,1.57
2018-12-10T14:58:21.757Z,2.20
2018-12-10T15:00:50.496Z,1.70
2018-12-10T15:03:19.155Z,2.03
2018-12-10T15:05:47.919Z,1.80
2018-12-10T15:08:16.707Z,1.50
2018-12-10T15:10:51.431Z,2.00
2018-12-10T15:13:20.109Z,2.70
2018-12-10T15:15:54.963Z,1.50
2018-12-10T15:18:29.515Z,1.50
2018-12-10T15:20:58.108Z,1.73
2018-12-10T15:23:32.999Z,1.92
2018-12-10T15:26:02.572Z,2.05
2018-12-10T15:28:37.380Z,2.13
2018-12-10T15:31:06.065Z,1.27
2018-12-10T15:33:34.735Z,1.67
2018-12-10T15:36:03.331Z,1.55
2018-12-10T15:38:38.003Z,2.00
2018-12-10T15:41:06.892Z,0.90
2018-12-10T15:43:35.402Z,1.30
2018-12-10T15:46:03.907Z,2.67
2018-12-10T15:48:38.856Z,5.03
2018-12-10T15:51:07.600Z,2.45
2018-12-10T15:53:42.107Z,3.50
2018-12-10T15:56:10.796Z,2.33
2018-12-10T15:58:39.311Z,2.90
2018-12-10T16:01:08.148Z,2.13
2018-12-10T16:03:39.818Z,2.33
2018-12-10T16:06:08.553Z,1.77
2018-12-10T16:08:43.155Z,2.12
2018-12-10T16:11:11.744Z,1.80
2018-12-10T16:13:46.648Z,1.52
2018-12-10T16:16:15.467Z,1.67
2018-12-10T16:18:43.919Z,2.37
2018-12-10T16:21:18.754Z,1.42
2018-12-10T16:23:47.535Z,1.52
2018-12-10T16:26:16.240Z,2.00
2018-12-10T16:28:44.876Z,2.00
2018-12-10T16:31:13.539Z,2.13
2018-12-10T16:33:48.384Z,1.65
2018-12-10T16:36:17.275Z,1.77
2018-12-10T16:38:56.027Z,1.37
2018-12-10T16:41:30.671Z,1.40
2018-12-10T16:43:59.236Z,1.45
2018-12-10T16:46:34.123Z,1.40
2018-12-10T16:49:08.999Z,1.10
2018-12-10T16:51:43.923Z,1.45
2018-12-10T16:54:12.663Z,1.42
2018-12-10T16:56:41.356Z,1.22
2018-12-10T16:59:10.060Z,1.82
2018-12-10T17:01:44.967Z,1.32
2018-12-10T17:04:13.575Z,1.45
2018-12-10T17:06:42.103Z,1.98
2018-12-10T17:09:11.698Z,1.75
2018-12-10T17:11:47.393Z,1.40
2018-12-10T17:14:16.378Z,2.22
2018-12-10T17:16:45.080Z,1.07
2018-12-10T17:19:13.785Z,1.47
2018-12-10T17:21:48.787Z,2.47
2018-12-10T17:24:17.251Z,2.60
2018-12-10T17:26:52.256Z,2.50
2018-12-10T17:29:28.465Z,1.95
2018-12-10T17:32:03.285Z,1.67
2018-12-10T17:34:31.703Z,2.30
2018-12-10T17:37:01.101Z,2.55
2018-12-10T17:39:36.007Z,1.95
2018-12-10T17:42:04.539Z,2.12
2018-12-10T17:44:39.108Z,2.85
2018-12-10T17:47:08.816Z,1.80
2018-12-10T17:49:43.859Z,2.30
2018-12-10T17:52:18.744Z,2.77
2018-12-10T17:54:53.657Z,2.60
2018-12-10T17:57:22.481Z,2.90
2018-12-10T17:59:51.397Z,2.33
2018-12-10T18:02:20.180Z,5.97
2018-12-10T18:04:54.853Z,3.20
2018-12-10T18:07:23.295Z,2.57
2018-12-10T18:09:58.163Z,3.40
2018-12-10T18:12:27.431Z,4.50
2018-12-10T18:14:56.027Z,2.60
2018-12-10T18:17:30.780Z,2.67
2018-12-10T18:19:59.524Z,2.90
2018-12-10T18:22:27.978Z,3.10
2018-12-10T18:25:02.595Z,2.62
2018-12-10T18:27:37.311Z,2.85
2018-12-10T18:30:12.724Z,3.17
2018-12-10T18:35:27.855Z,2.75
2018-12-10T18:37:56.556Z,2.80
2018-12-10T18:40:25.230Z,2.50
2018-12-10T18:43:00.308Z,3.27
2018-12-10T18:45:29.122Z,2.80
2018-12-10T18:47:57.813Z,2.55
2018-12-10T18:50:32.568Z,3.03
2018-12-10T18:53:07.604Z,2.62
2018-12-10T18:55:36.299Z,2.83
2018-12-10T18:58:11.296Z,2.65
2018-12-10T19:00:39.983Z,2.62
2018-12-10T19:03:08.787Z,3.40
2018-12-10T19:05:43.823Z,3.22
2018-12-10T19:08:12.361Z,3.55
2018-12-10T19:10:48.160Z,2.05
2018-12-10T19:13:16.920Z,2.27
2018-12-10T19:15:51.800Z,2.65
2018-12-10T19:18:25.271Z,1.55
2018-12-10T19:20:53.865Z,1.57
2018-12-10T19:23:22.362Z,2.35
2018-12-10T19:25:51.083Z,2.17
2018-12-10T19:28:19.788Z,2.15
2018-12-10T19:30:54.510Z,1.98
2018-12-10T19:33:23.208Z,1.80
2018-12-10T19:35:51.951Z,2.40
2018-12-10T19:38:26.555Z,1.95
2018-12-10T19:40:54.940Z,1.70
2018-12-10T19:43:24.458Z,1.95
2018-12-10T19:45:52.934Z,3.50
2018-12-10T19:48:21.311Z,2.50
2018-12-10T19:50:50.075Z,1.60
2018-12-10T19:53:18.819Z,2.10
2018-12-10T19:55:53.779Z,1.60
2018-12-10T19:58:22.487Z,1.77
2018-12-10T20:00:51.348Z,2.05
2018-12-10T20:03:26.380Z,1.15
2018-12-10T20:06:06.855Z,1.75
2018-12-10T20:08:35.575Z,2.15
2018-12-10T20:11:04.711Z,1.77
2018-12-10T20:13:33.480Z,1.42
2018-12-10T20:16:02.187Z,1.67
2018-12-10T20:18:32.863Z,1.37
2018-12-10T20:21:01.359Z,2.80
2018-12-10T20:23:36.214Z,2.05
2018-12-10T20:26:05.017Z,1.32
2018-12-10T20:28:39.874Z,2.20
2018-12-10T20:31:08.714Z,1.92
2018-12-10T20:33:37.486Z,2.05
2018-12-10T20:36:12.444Z,2.08
2018-12-10T20:38:41.209Z,2.27
2018-12-10T20:41:09.691Z,1.95
2018-12-10T20:43:38.364Z,2.22
2018-12-10T20:46:13.287Z,2.10
2018-12-10T20:48:48.261Z,1.80
2018-12-10T20:51:17.031Z,1.90
2018-12-10T20:53:51.915Z,2.30
2018-12-10T20:56:20.702Z,2.67
2018-12-10T20:58:55.753Z,2.50
2018-12-10T21:01:25.256Z,2.60
2018-12-10T21:03:54.019Z,4.08
2018-12-10T21:06:28.976Z,2.35
2018-12-10T21:09:06.055Z,2.00
2018-12-10T21:11:34.658Z,3.17
2018-12-10T21:14:03.495Z,3.75
2018-12-10T21:16:38.486Z,3.40
2018-12-10T21:19:07.229Z,2.52
2018-12-10T21:21:42.661Z,3.10
2018-12-10T21:24:11.448Z,2.20
2018-12-10T21:26:46.457Z,2.20
2018-12-10T21:29:15.230Z,1.90
2018-12-10T21:31:43.946Z,2.30
2018-12-10T21:34:12.949Z,2.08
2018-12-10T21:36:41.648Z,2.33
2018-12-10T21:39:10.383Z,1.87
2018-12-10T21:41:39.253Z,2.17
2018-12-10T21:44:07.994Z,1.87
2018-12-10T21:46:39.171Z,2.42
2018-12-10T21:49:07.898Z,2.33
2018-12-10T21:51:36.649Z,2.65
2018-12-10T21:54:05.430Z,2.60
2018-12-10T21:56:35.063Z,2.35
2018-12-10T21:59:03.851Z,2.85
2018-12-10T22:01:32.712Z,3.47
2018-12-10T22:04:01.473Z,2.58
2018-12-10T22:06:30.365Z,2.30
2018-12-10T22:09:05.973Z,2.60
2018-12-10T22:11:34.812Z,2.92
2018-12-10T22:14:09.638Z,1.92
2018-12-10T22:16:44.557Z,2.83
2018-12-10T22:19:14.212Z,2.85
2018-12-10T22:21:49.973Z,2.50
2018-12-10T22:24:19.167Z,4.97
2018-12-10T22:26:48.817Z,2.45
2018-12-10T22:29:17.622Z,2.05
2018-12-10T22:31:52.608Z,3.20
2018-12-10T22:34:27.655Z,3.10
2018-12-10T22:36:56.532Z,4.58
2018-12-10T22:39:26.032Z,5.05
2018-12-10T22:42:01.115Z,4.03
2018-12-10T22:44:36.072Z,2.98
2018-12-10T22:47:04.904Z,2.52
2018-12-10T22:49:33.685Z,2.72
2018-12-10T22:52:06.305Z,2.45
2018-12-10T22:54:35.072Z,3.05
2018-12-10T22:57:03.887Z,2.33
2018-12-10T22:59:32.375Z,2.52
2018-12-10T23:02:01.564Z,2.17
2018-12-10T23:04:36.217Z,1.50
2018-12-10T23:07:04.971Z,2.55
2018-12-10T23:09:33.724Z,2.22
2018-12-10T23:12:02.502Z,2.72
2018-12-10T23:14:31.275Z,2.33
2018-12-10T23:17:06.312Z,1.90
2018-12-10T23:19:35.072Z,1.87
2018-12-10T23:22:04.747Z,2.45
2018-12-10T23:24:33.287Z,2.20
2018-12-10T23:27:05.029Z,2.27
2018-12-10T23:29:33.696Z,2.33
2018-12-10T23:32:02.304Z,1.67
2018-12-10T23:34:37.213Z,1.52
2018-12-10T23:37:05.919Z,1.80
2018-12-10T23:39:40.566Z,2.10
2018-12-10T23:42:09.275Z,1.85
2018-12-10T23:44:49.557Z,2.65
2018-12-10T23:47:24.277Z,1.30
2018-12-10T23:49:52.997Z,2.05
2018-12-10T23:52:22.499Z,1.80
2018-12-10T23:54:51.248Z,1.87
2018-12-10T23:57:26.029Z,1.98
2018-12-10T23:59:54.723Z,2.00
